Time;durP1;ratioP1;P1;durP2;ratioP2;P2;SDS_P1;SDS_P2;PMS_P1;PMS_P2;Temp;Humidity;BMP_temperature;BMP_pressure;BME280_temperature;BME280_humidity;BME280_pressure;Samples;Min_cycle;Max_cycle;Signal;HPM_P1;HPM_P2
2024/04/06 00:01:41;;;;;;;2.30;1.73;;;15.40;99.90;;;;;;5027711;28;20804;-42
2024/04/06 00:04:09;;;;;;;2.60;1.70;;;15.40;99.90;;;;;;5041289;28;20483;-35
2024/04/06 00:06:37;;;;;;;3.63;1.70;;;15.40;99.90;;;;;;5040544;28;21267;-41
2024/04/06 00:09:06;;;;;;;3.20;2.00;;;15.40;99.90;;;;;;5040606;28;20745;-41
2024/04/06 00:11:32;;;;;;;2.63;1.90;;;15.40;99.90;;;;;;5043551;28;20431;-39
2024/04/06 00:14:06;;;;;;;2.70;2.30;;;15.40;99.90;;;;;;5044453;28;20460;-39
2024/04/06 00:16:36;;;;;;;1.80;1.70;;;15.40;99.90;;;;;;5036886;28;20476;-36
2024/04/06 00:19:02;;;;;;;2.37;1.90;;;15.40;99.90;;;;;;5038898;28;21024;-41
2024/04/06 00:21:31;;;;;;;2.07;1.87;;;15.40;99.90;;;;;;5044189;28;20444;-41
2024/04/06 00:23:56;;;;;;;1.73;1.60;;;15.40;99.90;;;;;;5027799;28;21096;-39
2024/04/06 00:26:24;;;;;;;2.43;1.80;;;15.30;99.90;;;;;;5039937;28;20441;-40
2024/04/06 00:28:50;;;;;;;2.10;1.90;;;15.40;99.90;;;;;;5041262;28;20451;-40
2024/04/06 00:31:18;;;;;;;1.90;1.80;;;15.30;99.90;;;;;;5040463;28;20438;-39
2024/04/06 00:33:46;;;;;;;2.40;1.73;;;15.40;99.90;;;;;;5043756;28;21180;-38
2024/04/06 00:36:16;;;;;;;1.90;1.80;;;15.30;99.90;;;;;;5037011;28;20806;-41
2024/04/06 00:38:44;;;;;;;2.00;1.80;;;15.30;99.90;;;;;;5041810;28;20450;-38
2024/04/06 00:41:15;;;;;;;2.17;1.70;;;15.30;99.90;;;;;;5041604;28;20852;-41
2024/04/06 00:43:41;;;;;;;1.70;1.60;;;15.30;99.90;;;;;;5042278;28;20429;-37
2024/04/06 00:46:07;;;;;;;1.70;1.57;;;15.30;99.90;;;;;;5042051;28;20425;-38
2024/04/06 00:48:36;;;;;;;3.00;1.70;;;15.30;99.90;;;;;;5043030;28;20439;-41
2024/04/06 00:51:06;;;;;;;2.30;2.07;;;15.30;99.90;;;;;;5042778;28;20419;-38
2024/04/06 00:53:34;;;;;;;2.10;1.90;;;15.30;99.90;;;;;;5044747;28;20430;-38
2024/04/06 00:56:06;;;;;;;1.83;1.60;;;15.30;99.90;;;;;;5037633;28;20431;-38
2024/04/06 00:58:32;;;;;;;3.63;1.97;;;15.30;99.90;;;;;;5038303;28;20996;-41
2024/04/06 01:01:00;;;;;;;1.90;1.60;;;15.30;99.90;;;;;;5022581;28;20434;-41
2024/04/06 01:03:27;;;;;;;2.70;2.07;;;15.30;99.90;;;;;;5038957;28;21015;-41
2024/04/06 01:05:53;;;;;;;2.20;2.00;;;15.30;99.90;;;;;;5035620;28;20438;-40
2024/04/06 01:08:19;;;;;;;11.97;2.10;;;15.30;99.90;;;;;;5034790;28;20421;-41
2024/04/06 01:10:45;;;;;;;2.80;1.77;;;15.30;99.90;;;;;;5036003;28;20459;-41
2024/04/06 01:13:11;;;;;;;2.73;1.60;;;15.30;99.90;;;;;;5035526;28;20434;-38
2024/04/06 01:15:43;;;;;;;4.00;1.90;;;15.30;99.90;;;;;;5035198;28;20480;-40
2024/04/06 01:18:11;;;;;;;2.43;1.77;;;15.30;99.90;;;;;;5040809;28;20433;-36
2024/04/06 01:20:42;;;;;;;2.00;1.77;;;15.30;99.90;;;;;;5039393;28;20462;-40
2024/04/06 01:23:08;;;;;;;2.47;1.70;;;15.30;99.90;;;;;;5039137;28;20445;-40
2024/04/06 01:25:34;;;;;;;3.30;1.93;;;15.30;99.90;;;;;;5040037;28;21311;-39
2024/04/06 01:28:00;;;;;;;2.57;1.90;;;15.30;99.90;;;;;;5032743;28;20505;-38
2024/04/06 01:30:31;;;;;;;2.10;1.80;;;15.30;99.90;;;;;;5035893;28;20450;-37
2024/04/06 01:33:01;;;;;;;2.33;1.70;;;15.30;99.90;;;;;;5038061;28;20808;-41
2024/04/06 01:35:33;;;;;;;2.20;1.83;;;15.30;99.90;;;;;;5018387;28;20442;-41
2024/04/06 01:37:58;;;;;;;2.10;1.90;;;15.30;99.90;;;;;;5018937;28;20446;-40
2024/04/06 01:40:29;;;;;;;2.43;1.90;;;15.30;99.90;;;;;;5036217;28;21077;-41
2024/04/06 01:42:55;;;;;;;2.67;2.10;;;15.30;99.90;;;;;;5037773;28;20426;-40
2024/04/06 01:45:24;;;;;;;4.03;1.90;;;15.30;99.90;;;;;;5036943;28;20470;-39
2024/04/06 01:47:50;;;;;;;1.97;1.67;;;15.30;99.90;;;;;;5032695;28;20521;-40
2024/04/06 01:50:16;;;;;;;3.00;1.60;;;15.30;99.90;;;;;;5037914;28;20536;-41
2024/04/06 01:52:44;;;;;;;3.17;1.70;;;15.30;99.90;;;;;;5038225;28;20266;-42
2024/04/06 01:55:10;;;;;;;3.03;2.27;;;15.30;99.90;;;;;;5042176;28;20424;-42
2024/04/06 01:57:36;;;;;;;2.07;1.70;;;15.30;99.90;;;;;;5035004;28;20441;-42
2024/04/06 02:00:08;;;;;;;3.57;2.20;;;15.30;99.90;;;;;;5032488;28;21533;-41
2024/04/06 02:02:41;;;;;;;1.80;1.70;;;15.30;99.90;;;;;;5053168;28;20430;-39
2024/04/06 02:05:09;;;;;;;3.77;2.20;;;15.20;99.90;;;;;;5037328;28;20548;-39
2024/04/06 02:07:35;;;;;;;3.50;2.10;;;15.20;99.90;;;;;;5032225;28;20450;-43
2024/04/06 02:10:01;;;;;;;1.90;1.70;;;15.20;99.90;;;;;;5035242;28;20445;-40
2024/04/06 02:12:27;;;;;;;2.23;1.90;;;15.20;99.90;;;;;;5037187;28;20263;-40
2024/04/06 02:14:54;;;;;;;2.40;1.87;;;15.20;99.90;;;;;;5039978;28;20428;-39
2024/04/06 02:17:24;;;;;;;2.97;2.20;;;15.20;99.90;;;;;;5051921;28;20566;-40
2024/04/06 02:19:53;;;;;;;2.17;1.80;;;15.20;99.90;;;;;;5020115;28;20677;-40
2024/04/06 02:22:19;;;;;;;2.30;1.97;;;15.20;99.90;;;;;;5061892;28;20426;-40
2024/04/06 02:24:45;;;;;;;3.50;2.27;;;15.20;99.90;;;;;;5038007;28;20818;-42
2024/04/06 02:27:11;;;;;;;2.43;2.23;;;15.20;99.90;;;;;;5040396;28;20513;-41
2024/04/06 02:29:42;;;;;;;5.00;2.10;;;15.20;99.90;;;;;;5040422;28;20489;-40
2024/04/06 02:32:08;;;;;;;1.97;1.83;;;15.20;99.90;;;;;;5036675;28;20433;-41
2024/04/06 02:34:34;;;;;;;3.60;1.90;;;15.20;99.90;;;;;;5040613;28;20451;-40
2024/04/06 02:37:03;;;;;;;1.97;1.70;;;15.20;99.90;;;;;;5039251;28;20500;-41
2024/04/06 02:39:28;;;;;;;2.10;1.87;;;15.20;99.90;;;;;;5043126;28;20460;-41
2024/04/06 02:41:57;;;;;;;2.23;2.03;;;15.20;99.90;;;;;;5040872;28;20464;-40
2024/04/06 02:44:23;;;;;;;2.20;2.00;;;15.20;99.90;;;;;;5039414;28;21280;-42
2024/04/06 02:46:50;;;;;;;2.13;1.93;;;15.20;99.90;;;;;;5029187;28;20419;-41
2024/04/06 02:49:18;;;;;;;2.90;2.30;;;15.20;99.90;;;;;;5036542;28;20204;-38
2024/04/06 02:51:49;;;;;;;2.77;1.83;;;15.20;99.90;;;;;;5038150;28;20437;-41
2024/04/06 02:54:15;;;;;;;3.33;2.10;;;15.20;99.90;;;;;;5042762;28;20629;-41
2024/04/06 02:56:42;;;;;;;2.50;1.93;;;15.20;99.90;;;;;;5034038;28;20438;-39
2024/04/06 02:59:08;;;;;;;3.33;1.90;;;15.20;99.90;;;;;;5039864;28;20513;-41
2024/04/06 03:01:34;;;;;;;3.07;2.00;;;15.20;99.90;;;;;;5037802;28;20422;-39
2024/04/06 03:04:00;;;;;;;2.47;1.90;;;15.20;99.90;;;;;;5041507;28;20463;-41
2024/04/06 03:06:28;;;;;;;2.00;1.80;;;15.20;99.90;;;;;;5040134;28;20426;-41
2024/04/06 03:08:55;;;;;;;2.27;2.00;;;15.20;99.90;;;;;;5039113;28;20525;-41
2024/04/06 03:11:22;;;;;;;2.20;2.00;;;15.20;99.90;;;;;;5040463;28;20519;-40
2024/04/06 03:13:48;;;;;;;4.57;2.20;;;15.10;99.90;;;;;;5037349;28;20432;-41
2024/04/06 03:16:14;;;;;;;2.27;1.87;;;15.10;99.90;;;;;;5039075;28;20417;-39
2024/04/06 03:18:44;;;;;;;2.40;1.97;;;15.10;99.90;;;;;;5039200;28;20198;-41
2024/04/06 03:21:13;;;;;;;2.60;2.13;;;15.10;99.90;;;;;;5037197;28;20431;-40
2024/04/06 03:23:39;;;;;;;2.37;2.00;;;15.10;99.90;;;;;;5042224;28;20457;-40
2024/04/06 03:26:05;;;;;;;1.97;1.80;;;15.10;99.90;;;;;;5039358;28;20423;-41
2024/04/06 03:28:31;;;;;;;2.10;1.90;;;15.10;99.90;;;;;;5068125;22;21335;-40
2024/04/06 03:31:00;;;;;;;2.03;1.60;;;15.10;99.90;;;;;;5051684;28;20426;-42
2024/04/06 03:33:28;;;;;;;2.50;1.73;;;15.10;99.90;;;;;;5061657;28;20433;-42
2024/04/06 03:35:54;;;;;;;2.33;1.93;;;15.10;99.90;;;;;;5065831;28;20502;-42
2024/04/06 03:38:21;;;;;;;3.83;1.87;;;15.10;99.90;;;;;;5073142;28;20436;-42
2024/04/06 03:40:49;;;;;;;3.40;2.07;;;15.10;99.90;;;;;;5078617;28;20631;-43
2024/04/06 03:43:16;;;;;;;2.37;1.87;;;15.10;99.90;;;;;;5065578;28;20425;-41
2024/04/06 03:45:43;;;;;;;2.27;1.83;;;15.10;99.90;;;;;;5077792;28;20481;-42
2024/04/06 03:48:09;;;;;;;2.20;1.77;;;15.10;99.90;;;;;;5067096;28;20921;-42
2024/04/06 03:50:37;;;;;;;3.83;2.10;;;15.10;99.90;;;;;;5079516;28;20548;-41
2024/04/06 03:53:04;;;;;;;2.63;2.10;;;15.10;99.90;;;;;;5058892;28;20462;-43
2024/04/06 03:55:30;;;;;;;2.30;1.73;;;15.10;99.90;;;;;;5047583;28;20494;-42
2024/04/06 03:57:58;;;;;;;4.17;2.03;;;15.10;99.90;;;;;;5039783;28;20947;-42
2024/04/06 04:00:26;;;;;;;3.10;1.90;;;15.10;99.90;;;;;;5068248;28;21036;-42
2024/04/06 04:02:52;;;;;;;2.60;1.97;;;15.10;99.90;;;;;;5048957;28;20486;-43
2024/04/06 04:05:18;;;;;;;3.20;2.10;;;15.10;99.90;;;;;;5078910;28;20459;-40
2024/04/06 04:07:46;;;;;;;2.40;2.00;;;15.00;99.90;;;;;;5079300;28;20769;-42
2024/04/06 04:10:15;;;;;;;2.10;1.70;;;15.00;99.90;;;;;;5076565;28;20450;-42
2024/04/06 04:12:40;;;;;;;3.50;1.93;;;15.00;99.90;;;;;;5054499;28;20493;-42
2024/04/06 04:15:07;;;;;;;2.10;1.73;;;15.00;99.90;;;;;;5054286;28;20421;-42
2024/04/06 04:17:35;;;;;;;3.67;2.27;;;15.00;99.90;;;;;;5054556;28;21036;-42
2024/04/06 04:20:02;;;;;;;3.70;2.33;;;15.00;99.90;;;;;;5058333;28;20623;-42
2024/04/06 04:22:28;;;;;;;3.20;1.67;;;15.00;99.90;;;;;;5050138;28;20460;-42
2024/04/06 04:24:54;;;;;;;2.23;2.03;;;15.00;99.90;;;;;;5079777;28;20552;-42
2024/04/06 04:27:20;;;;;;;2.67;2.03;;;15.00;99.90;;;;;;5081042;28;20845;-42
2024/04/06 04:29:49;;;;;;;4.63;2.30;;;15.00;99.90;;;;;;5063042;28;20467;-42
2024/04/06 04:32:15;;;;;;;2.67;1.97;;;15.00;99.90;;;;;;5065753;28;20437;-43
2024/04/06 04:34:41;;;;;;;1.70;1.60;;;15.00;99.90;;;;;;5079945;28;20432;-42
2024/04/06 04:37:07;;;;;;;2.00;1.80;;;15.00;99.90;;;;;;5078745;28;20453;-42
2024/04/06 04:39:35;;;;;;;1.80;1.70;;;15.00;99.90;;;;;;5069567;28;20587;-42
2024/04/06 04:42:02;;;;;;;2.13;1.83;;;15.00;99.90;;;;;;5061701;28;20982;-42
2024/04/06 04:44:28;;;;;;;2.40;1.80;;;15.00;99.90;;;;;;5068934;28;20956;-42
2024/04/06 04:46:54;;;;;;;1.90;1.63;;;15.00;99.90;;;;;;5076941;28;20421;-42
2024/04/06 04:49:25;;;;;;;3.20;2.03;;;15.00;99.90;;;;;;5069486;28;20960;-41
2024/04/06 04:51:54;;;;;;;2.40;1.80;;;15.00;99.90;;;;;;5068212;28;20503;-43
2024/04/06 04:54:22;;;;;;;2.40;1.80;;;15.00;99.90;;;;;;5078900;28;20445;-42
2024/04/06 04:56:48;;;;;;;3.70;1.97;;;15.00;99.90;;;;;;5075741;28;20927;-41
2024/04/06 04:59:14;;;;;;;2.47;1.97;;;15.00;99.90;;;;;;5077880;28;20452;-42
2024/04/06 05:01:40;;;;;;;3.23;2.00;;;15.00;99.90;;;;;;5042594;28;20477;-41
2024/04/06 05:04:06;;;;;;;2.90;2.00;;;15.00;99.90;;;;;;5073923;28;20542;-42
2024/04/06 05:06:32;;;;;;;3.17;1.90;;;15.00;99.90;;;;;;5063363;28;21298;-43
2024/04/06 05:08:59;;;;;;;2.47;2.10;;;15.00;99.90;;;;;;5077304;28;20435;-42
2024/04/06 05:11:25;;;;;;;2.80;2.03;;;15.00;99.90;;;;;;5075446;28;20450;-42
2024/04/06 05:13:51;;;;;;;2.87;2.00;;;15.00;99.90;;;;;;5077470;28;20429;-42
2024/04/06 05:16:19;;;;;;;1.97;1.77;;;15.00;99.90;;;;;;5073171;28;20475;-42
2024/04/06 05:18:45;;;;;;;2.80;2.37;;;15.00;99.90;;;;;;5076922;28;20538;-40
2024/04/06 05:21:11;;;;;;;2.57;2.20;;;15.00;99.90;;;;;;5075615;28;21408;-42
2024/04/06 05:23:40;;;;;;;2.43;2.03;;;14.90;99.90;;;;;;5078013;28;20530;-42
2024/04/06 05:26:06;;;;;;;3.50;2.33;;;15.00;99.90;;;;;;5076140;28;20438;-42
2024/04/06 05:28:34;;;;;;;1.70;1.60;;;14.90;99.90;;;;;;5077233;28;20463;-42
2024/04/06 05:31:00;;;;;;;3.03;1.67;;;14.90;99.90;;;;;;5033680;28;20426;-43
2024/04/06 05:33:26;;;;;;;4.60;1.60;;;14.90;99.90;;;;;;5076528;28;20809;-42
2024/04/06 05:35:52;;;;;;;2.37;1.93;;;14.90;99.90;;;;;;5074131;28;20455;-42
2024/04/06 05:38:18;;;;;;;3.70;1.80;;;14.90;99.90;;;;;;5077091;28;20440;-42
2024/04/06 05:40:45;;;;;;;2.17;1.97;;;14.90;99.90;;;;;;5056944;28;20447;-42
2024/04/06 05:43:14;;;;;;;2.30;1.80;;;14.90;99.90;;;;;;5074447;28;21195;-42
2024/04/06 05:45:41;;;;;;;2.10;1.90;;;14.90;99.90;;;;;;5064562;28;20466;-42
2024/04/06 05:48:10;;;;;;;2.73;2.43;;;14.90;99.90;;;;;;5076185;28;20897;-41
2024/04/06 05:50:41;;;;;;;2.10;1.90;;;14.90;99.90;;;;;;5077524;28;20464;-43
2024/04/06 05:53:07;;;;;;;2.83;2.10;;;14.90;99.90;;;;;;5073144;28;21177;-42
2024/04/06 05:55:33;;;;;;;2.60;1.60;;;14.90;99.90;;;;;;5063362;28;20421;-42
2024/04/06 05:57:59;;;;;;;5.20;2.10;;;14.90;99.90;;;;;;5073560;28;21060;-42
2024/04/06 06:00:26;;;;;;;2.90;1.63;;;14.90;99.90;;;;;;5056010;28;20442;-41
2024/04/06 06:02:53;;;;;;;1.77;1.63;;;14.90;99.90;;;;;;5071547;28;20540;-42
2024/04/06 06:05:20;;;;;;;4.87;2.17;;;14.90;99.90;;;;;;5048774;28;20520;-42
2024/04/06 06:07:46;;;;;;;2.50;2.30;;;14.90;99.90;;;;;;5060646;28;20440;-42
2024/04/06 06:10:12;;;;;;;2.10;1.90;;;14.90;99.90;;;;;;5058767;28;20437;-42
2024/04/06 06:12:38;;;;;;;2.57;2.20;;;14.90;99.90;;;;;;5067984;28;20518;-42
2024/04/06 06:15:04;;;;;;;2.33;1.90;;;14.90;99.90;;;;;;5071633;28;21188;-42
2024/04/06 06:17:31;;;;;;;3.27;2.00;;;14.90;99.90;;;;;;5065679;28;20432;-41
2024/04/06 06:19:56;;;;;;;3.90;2.20;;;14.90;99.90;;;;;;5069507;28;20590;-43
2024/04/06 06:22:23;;;;;;;2.40;1.73;;;14.90;99.90;;;;;;5069002;28;20868;-42
2024/04/06 06:24:49;;;;;;;2.73;2.40;;;14.90;99.90;;;;;;5057177;28;20466;-42
2024/04/06 06:27:16;;;;;;;2.20;2.00;;;14.90;99.90;;;;;;5074347;28;20436;-42
2024/04/06 06:29:45;;;;;;;2.23;1.97;;;14.90;99.90;;;;;;5072131;28;20444;-42
2024/04/06 06:32:13;;;;;;;2.80;1.77;;;14.90;99.90;;;;;;5063805;28;21044;-42
2024/04/06 06:34:39;;;;;;;3.00;2.17;;;14.90;99.90;;;;;;5057427;28;20439;-42
2024/04/06 06:37:07;;;;;;;4.20;2.30;;;14.90;99.90;;;;;;5071717;28;20441;-42
2024/04/06 06:39:33;;;;;;;2.40;2.20;;;14.90;99.90;;;;;;5067564;28;20598;-42
2024/04/06 06:41:59;;;;;;;2.80;1.90;;;14.90;99.90;;;;;;5072764;28;20471;-42
2024/04/06 06:44:25;;;;;;;4.70;2.00;;;14.90;99.90;;;;;;5047128;28;20469;-42
2024/04/06 06:46:56;;;;;;;3.57;2.10;;;15.00;99.90;;;;;;5053625;28;20427;-42
2024/04/06 06:49:22;;;;;;;2.73;2.43;;;14.90;99.90;;;;;;5071367;28;20505;-41
2024/04/06 06:51:48;;;;;;;2.33;2.10;;;15.00;99.90;;;;;;5074744;28;20433;-42
2024/04/06 06:54:14;;;;;;;3.40;2.10;;;14.90;99.90;;;;;;5063761;28;20414;-42
2024/04/06 06:56:40;;;;;;;3.40;2.23;;;15.00;99.90;;;;;;5074351;28;20496;-42
2024/04/06 06:59:06;;;;;;;3.80;2.33;;;15.00;99.90;;;;;;5073952;28;20540;-42
2024/04/06 07:01:35;;;;;;;2.93;2.40;;;15.00;99.90;;;;;;5076362;28;20521;-41
2024/04/06 07:04:00;;;;;;;4.20;2.80;;;15.00;99.90;;;;;;5046585;28;21184;-42
2024/04/06 07:06:33;;;;;;;3.67;2.50;;;15.00;99.90;;;;;;5033729;28;20446;-42
2024/04/06 07:09:03;;;;;;;3.00;2.70;;;15.00;99.90;;;;;;5058622;28;20498;-42
2024/04/06 07:11:29;;;;;;;5.37;2.50;;;15.00;99.90;;;;;;5075713;28;20432;-42
2024/04/06 07:13:57;;;;;;;3.40;2.77;;;14.90;99.90;;;;;;5074449;28;20621;-42
2024/04/06 07:16:25;;;;;;;3.57;2.27;;;15.00;99.90;;;;;;5075514;28;20479;-41
2024/04/06 07:18:51;;;;;;;3.73;2.13;;;15.00;99.90;;;;;;5076712;28;20454;-43
2024/04/06 07:21:18;;;;;;;3.47;2.70;;;15.00;99.90;;;;;;5073538;28;21010;-42
2024/04/06 07:23:44;;;;;;;6.73;2.60;;;15.00;99.90;;;;;;5059248;28;20583;-42
2024/04/06 07:26:12;;;;;;;7.53;2.77;;;15.00;99.90;;;;;;5064987;28;20618;-42
2024/04/06 07:28:42;;;;;;;2.50;2.30;;;15.00;99.90;;;;;;5075755;28;21174;-42
2024/04/06 07:31:08;;;;;;;2.93;2.40;;;15.00;99.90;;;;;;5077918;28;20547;-43
2024/04/06 07:33:34;;;;;;;3.00;2.17;;;15.00;99.90;;;;;;5073651;28;20438;-42
2024/04/06 07:36:03;;;;;;;4.23;2.80;;;15.00;99.90;;;;;;5075253;28;21125;-42
2024/04/06 07:38:29;;;;;;;4.23;2.80;;;15.00;99.90;;;;;;5079353;28;20440;-42
2024/04/06 07:41:01;;;;;;;3.30;2.57;;;15.00;99.90;;;;;;5063654;28;20606;-42
2024/04/06 07:43:27;;;;;;;4.60;2.60;;;15.00;99.90;;;;;;5064273;28;20437;-42
2024/04/06 07:45:56;;;;;;;3.00;2.70;;;15.00;99.90;;;;;;5071358;28;21046;-42
2024/04/06 07:48:23;;;;;;;2.20;2.00;;;15.00;99.90;;;;;;5077502;28;20530;-42
2024/04/06 07:50:49;;;;;;;3.60;2.63;;;15.00;99.90;;;;;;5074757;28;21028;-42
2024/04/06 07:53:18;;;;;;;2.87;2.40;;;15.00;99.90;;;;;;5079765;28;20424;-42
2024/04/06 07:55:44;;;;;;;3.17;2.27;;;15.10;99.90;;;;;;5077331;28;20424;-42
2024/04/06 07:58:12;;;;;;;4.10;2.80;;;15.10;99.90;;;;;;5079390;28;20914;-42
2024/04/06 08:00:39;;;;;;;5.70;2.40;;;15.10;99.90;;;;;;5076010;28;20554;-42
2024/04/06 08:03:05;;;;;;;2.90;2.33;;;15.10;99.90;;;;;;5078473;28;20421;-42
2024/04/06 08:05:35;;;;;;;5.73;2.60;;;15.10;99.90;;;;;;5077147;28;20479;-42
2024/04/06 08:08:01;;;;;;;2.90;2.60;;;15.10;99.90;;;;;;5079764;28;20441;-42
2024/04/06 08:10:28;;;;;;;3.20;2.63;;;15.10;99.90;;;;;;5080006;28;20441;-42
2024/04/06 08:12:55;;;;;;;4.40;2.70;;;15.10;99.90;;;;;;5065012;28;20425;-42
2024/04/06 08:15:21;;;;;;;3.00;2.33;;;15.10;99.90;;;;;;5079380;28;20429;-41
2024/04/06 08:17:48;;;;;;;3.33;2.47;;;15.20;99.90;;;;;;5075423;28;20448;-42
2024/04/06 08:20:16;;;;;;;4.17;2.23;;;15.10;99.90;;;;;;5078411;28;20994;-42
2024/04/06 08:22:43;;;;;;;3.83;2.40;;;15.20;99.90;;;;;;5074448;28;20763;-42
2024/04/06 08:25:11;;;;;;;3.60;2.30;;;15.20;99.90;;;;;;5056219;28;20482;-41
2024/04/06 08:27:38;;;;;;;3.40;2.27;;;15.20;99.90;;;;;;5074809;28;20443;-43
2024/04/06 08:30:06;;;;;;;5.93;2.33;;;15.20;99.90;;;;;;5059485;28;20506;-42
2024/04/06 08:32:33;;;;;;;4.47;2.37;;;15.20;99.90;;;;;;5035728;28;20454;-42
2024/04/06 08:34:59;;;;;;;5.70;2.27;;;15.20;99.90;;;;;;5048695;28;20985;-42
2024/04/06 08:37:26;;;;;;;2.30;2.10;;;15.20;99.90;;;;;;5075796;28;20469;-42
2024/04/06 08:39:52;;;;;;;4.00;2.50;;;15.30;99.90;;;;;;5069171;28;20460;-41
2024/04/06 08:42:23;;;;;;;3.73;2.20;;;15.30;99.90;;;;;;5064472;28;20455;-42
2024/04/06 08:44:50;;;;;;;2.60;2.10;;;15.30;99.90;;;;;;5058740;28;20610;-42
2024/04/06 08:47:19;;;;;;;2.57;2.37;;;15.30;99.90;;;;;;5069737;28;20472;-42
2024/04/06 08:49:49;;;;;;;4.23;2.60;;;15.30;99.90;;;;;;5059778;28;20433;-43
2024/04/06 08:52:20;;;;;;;3.70;2.50;;;15.30;99.90;;;;;;5074769;28;20455;-42
2024/04/06 08:54:46;;;;;;;4.60;2.30;;;15.40;99.90;;;;;;5075675;28;20427;-42
2024/04/06 08:57:12;;;;;;;2.50;2.20;;;15.40;99.90;;;;;;5075451;28;20451;-42
2024/04/06 08:59:38;;;;;;;4.30;2.00;;;15.40;99.90;;;;;;5055361;28;20975;-43
2024/04/06 09:02:07;;;;;;;6.80;1.90;;;15.60;99.90;;;;;;5060271;28;20431;-43
2024/04/06 09:04:35;;;;;;;2.40;1.80;;;15.90;99.90;;;;;;5072969;28;20461;-43
2024/04/06 09:07:01;;;;;;;6.63;2.07;;;16.10;99.90;;;;;;5075338;28;20429;-43
2024/04/06 09:09:27;;;;;;;4.20;1.83;;;16.30;99.90;;;;;;5079205;28;20979;-43
2024/04/06 09:11:53;;;;;;;2.30;1.90;;;16.50;99.90;;;;;;5079855;28;20423;-43
2024/04/06 09:14:19;;;;;;;5.83;2.07;;;16.70;99.90;;;;;;5078880;28;20942;-42
2024/04/06 09:16:45;;;;;;;3.87;1.93;;;16.90;99.90;;;;;;5076454;28;20531;-43
2024/04/06 09:19:11;;;;;;;2.20;1.80;;;17.10;99.90;;;;;;5046985;28;20449;-43
2024/04/06 09:21:38;;;;;;;3.50;2.40;;;17.30;99.90;;;;;;5078882;28;20425;-44
2024/04/06 09:24:06;;;;;;;3.77;1.63;;;17.40;99.80;;;;;;5078072;28;21193;-44
2024/04/06 09:26:35;;;;;;;5.10;1.50;;;17.50;99.10;;;;;;5076535;28;20424;-44
2024/04/06 09:29:01;;;;;;;3.10;1.70;;;17.60;98.70;;;;;;5044265;22;20514;-42
2024/04/06 09:31:28;;;;;;;5.83;2.23;;;17.80;98.10;;;;;;5013517;28;20590;-42
2024/04/06 09:33:59;;;;;;;10.80;2.33;;;17.90;98.00;;;;;;5014977;28;20850;-42
2024/04/06 09:36:26;;;;;;;4.97;2.23;;;18.00;97.60;;;;;;5016218;28;20446;-39
2024/04/06 09:38:54;;;;;;;5.80;2.40;;;18.10;97.90;;;;;;5016786;28;21401;-42
2024/04/06 09:41:21;;;;;;;2.77;1.77;;;18.20;97.30;;;;;;4999315;28;21040;-42
2024/04/06 09:43:49;;;;;;;2.50;1.80;;;18.30;97.40;;;;;;5017125;28;20422;-43
2024/04/06 09:46:19;;;;;;;3.13;1.40;;;18.40;97.00;;;;;;5011629;28;20450;-42
2024/04/06 09:48:48;;;;;;;2.43;1.50;;;18.50;96.80;;;;;;4999469;28;21157;-40
2024/04/06 09:51:14;;;;;;;2.20;1.80;;;18.60;96.60;;;;;;5014872;28;20416;-42
2024/04/06 09:53:43;;;;;;;4.10;2.00;;;18.70;95.90;;;;;;5015807;28;20441;-43
2024/04/06 09:56:10;;;;;;;7.60;2.00;;;18.80;95.60;;;;;;5015663;28;20467;-42
2024/04/06 09:58:46;;;;;;;2.80;1.73;;;18.90;95.10;;;;;;5015456;28;20507;-42
2024/04/06 10:01:16;;;;;;;5.43;2.20;;;19.10;94.60;;;;;;5008461;28;20423;-42
2024/04/06 10:03:45;;;;;;;2.67;1.70;;;19.20;93.70;;;;;;5014904;28;20499;-40
2024/04/06 10:06:17;;;;;;;2.43;1.70;;;19.30;93.20;;;;;;4992585;28;20424;-41
2024/04/06 10:08:56;;;;;;;2.47;2.17;;;19.40;93.00;;;;;;5014069;28;20526;-42
2024/04/06 10:11:27;;;;;;;2.50;1.63;;;19.50;93.20;;;;;;5013162;28;20427;-42
2024/04/06 10:13:58;;;;;;;2.40;1.50;;;19.60;92.80;;;;;;5015061;28;20941;-43
2024/04/06 10:16:32;;;;;;;4.07;2.07;;;19.60;92.30;;;;;;5013779;28;21393;-42
2024/04/06 10:19:02;;;;;;;2.03;1.63;;;19.60;91.70;;;;;;5012089;28;20507;-42
2024/04/06 10:21:36;;;;;;;6.83;1.73;;;19.70;91.20;;;;;;5010609;28;20412;-41
2024/04/06 10:24:13;;;;;;;2.37;2.07;;;19.70;91.70;;;;;;5013433;28;20547;-42
2024/04/06 10:26:54;;;;;;;3.50;1.83;;;19.70;91.60;;;;;;5009964;28;20439;-43
2024/04/06 10:29:23;;;;;;;4.07;1.60;;;19.80;91.50;;;;;;5026282;28;20468;-40
2024/04/06 10:31:54;;;;;;;1.87;1.73;;;19.90;91.70;;;;;;5033072;28;20427;-42
2024/04/06 10:34:23;;;;;;;2.13;1.77;;;19.90;91.10;;;;;;5035850;28;20441;-43
2024/04/06 10:36:49;;;;;;;2.73;1.57;;;20.00;90.40;;;;;;5000830;28;20845;-43
2024/04/06 10:39:17;;;;;;;3.23;1.73;;;20.10;90.60;;;;;;5017051;28;20499;-41
2024/04/06 10:41:45;;;;;;;4.23;1.60;;;20.10;90.40;;;;;;5023037;28;20463;-43
2024/04/06 10:44:11;;;;;;;2.80;1.60;;;20.20;90.10;;;;;;5017335;28;20459;-42
2024/04/06 10:46:40;;;;;;;2.20;1.60;;;20.30;89.60;;;;;;4996883;28;21231;-42
2024/04/06 10:49:13;;;;;;;1.60;1.50;;;20.50;87.30;;;;;;5035349;28;20443;-40
2024/04/06 10:51:41;;;;;;;4.60;2.20;;;20.60;87.70;;;;;;5015420;28;20426;-43
2024/04/06 10:54:11;;;;;;;2.97;1.50;;;20.70;87.20;;;;;;4999869;28;20446;-40
2024/04/06 10:56:37;;;;;;;2.00;1.70;;;20.80;85.90;;;;;;5013642;28;21405;-41
2024/04/06 10:59:04;;;;;;;2.10;1.60;;;20.80;85.30;;;;;;5003229;28;20434;-41
2024/04/06 11:01:34;;;;;;;1.67;1.53;;;20.90;85.20;;;;;;5021498;28;20450;-43
2024/04/06 11:04:03;;;;;;;2.77;1.50;;;20.90;84.30;;;;;;5021412;28;20436;-39
2024/04/06 11:06:30;;;;;;;1.70;1.40;;;21.00;83.40;;;;;;5020649;28;21172;-42
2024/04/06 11:09:00;;;;;;;3.03;1.70;;;21.10;83.70;;;;;;5005038;28;20451;-42
2024/04/06 11:11:30;;;;;;;3.03;1.67;;;21.20;81.70;;;;;;5018019;28;20530;-43
2024/04/06 11:13:59;;;;;;;2.47;1.50;;;21.20;82.30;;;;;;5020817;28;20956;-42
2024/04/06 11:16:30;;;;;;;5.37;1.67;;;21.30;83.00;;;;;;5019473;28;20447;-41
2024/04/06 11:18:58;;;;;;;2.90;1.90;;;21.30;82.10;;;;;;5038490;28;21216;-43
2024/04/06 11:21:31;;;;;;;2.00;1.70;;;21.40;81.50;;;;;;5036514;28;20530;-42
2024/04/06 11:23:59;;;;;;;6.20;1.73;;;21.40;81.20;;;;;;5020920;28;20428;-42
2024/04/06 11:26:27;;;;;;;1.83;1.70;;;21.40;82.30;;;;;;5037596;28;21181;-43
2024/04/06 11:28:53;;;;;;;5.43;2.50;;;21.40;81.50;;;;;;5019824;28;20444;-41
2024/04/06 11:31:21;;;;;;;2.60;1.63;;;21.50;81.40;;;;;;5038169;28;20519;-43
2024/04/06 11:33:48;;;;;;;4.00;2.40;;;21.50;81.40;;;;;;5017735;28;20451;-43
2024/04/06 11:36:14;;;;;;;2.43;1.53;;;21.50;82.20;;;;;;5038622;28;20437;-43
2024/04/06 11:38:40;;;;;;;4.07;1.80;;;21.50;82.80;;;;;;5038838;28;20428;-41
2024/04/06 11:41:06;;;;;;;2.97;2.10;;;21.60;82.40;;;;;;5038620;28;20443;-42
2024/04/06 11:43:34;;;;;;;4.47;2.73;;;21.70;82.70;;;;;;5039211;28;21206;-42
2024/04/06 11:46:00;;;;;;;4.17;2.10;;;21.80;82.30;;;;;;5038579;28;20471;-42
2024/04/06 11:48:31;;;;;;;2.20;1.73;;;21.90;81.20;;;;;;5016784;28;20514;-42
2024/04/06 11:51:00;;;;;;;3.23;2.00;;;22.00;80.00;;;;;;5022590;28;20440;-43
2024/04/06 11:53:26;;;;;;;3.27;2.00;;;22.10;79.00;;;;;;5022062;28;20437;-40
2024/04/06 11:55:52;;;;;;;2.70;1.83;;;22.10;79.40;;;;;;5038376;28;21236;-43
2024/04/06 11:58:20;;;;;;;3.10;2.00;;;22.10;77.80;;;;;;5038120;28;20433;-42
2024/04/06 12:00:46;;;;;;;3.17;1.70;;;22.10;78.80;;;;;;5039199;28;20501;-42
2024/04/06 12:03:12;;;;;;;3.10;1.97;;;22.10;78.50;;;;;;5038674;28;20441;-42
2024/04/06 12:05:38;;;;;;;2.10;1.70;;;22.20;78.40;;;;;;5038176;28;20465;-43
2024/04/06 12:08:07;;;;;;;4.80;1.63;;;22.30;77.00;;;;;;5036450;28;20504;-43
2024/04/06 12:10:34;;;;;;;2.63;2.07;;;22.30;75.80;;;;;;5037476;28;20449;-43
2024/04/06 12:13:00;;;;;;;4.37;3.83;;;22.40;75.90;;;;;;5038499;28;20412;-43
2024/04/06 12:15:27;;;;;;;5.57;3.77;;;22.50;76.50;;;;;;5038448;28;20460;-43
2024/04/06 12:17:55;;;;;;;3.10;2.73;;;22.60;75.40;;;;;;5040592;28;20476;-42
2024/04/06 12:20:21;;;;;;;3.00;2.33;;;22.70;75.50;;;;;;5021095;28;20553;-42
2024/04/06 12:22:49;;;;;;;4.13;2.50;;;22.80;75.30;;;;;;5037618;28;20421;-43
2024/04/06 12:25:15;;;;;;;4.20;2.00;;;22.80;73.90;;;;;;5016374;28;21136;-43
2024/04/06 12:27:41;;;;;;;1.83;1.60;;;22.90;73.90;;;;;;5038423;28;21024;-40
2024/04/06 12:30:13;;;;;;;2.90;1.97;;;23.00;73.10;;;;;;5017790;28;20460;-42
2024/04/06 12:32:45;;;;;;;13.13;2.17;;;23.10;71.90;;;;;;5035052;28;20537;-43
2024/04/06 12:35:10;;;;;;;2.97;1.83;;;23.20;73.00;;;;;;5033756;28;21103;-42
2024/04/06 12:37:36;;;;;;;2.70;1.43;;;23.20;74.20;;;;;;5020406;28;20465;-42
2024/04/06 12:40:05;;;;;;;1.70;1.30;;;23.30;72.20;;;;;;5036263;28;20290;-40
2024/04/06 12:42:33;;;;;;;3.07;1.57;;;23.30;69.20;;;;;;5019665;28;21250;-42
2024/04/06 12:45:02;;;;;;;3.07;1.60;;;23.40;69.20;;;;;;5017612;28;20501;-43
2024/04/06 12:47:31;;;;;;;3.03;1.60;;;23.50;70.80;;;;;;5004010;28;20442;-43